sensor_id;sensor_type;location;lat;lon;timestamp;P1;durP1;ratioP1;P2;durP2;ratioP2
63296;SDS011;49419;51.716;-4.948;2023-06-19T00:00:41;7.50;;;6.90;;
63296;SDS011;49419;51.716;-4.948;2023-06-19T00:03:37;7.15;;;6.65;;
63296;SDS011;49419;51.716;-4.948;2023-06-19T00:06:04;6.85;;;6.35;;
63296;SDS011;49419;51.716;-4.948;2023-06-19T00:08:30;6.50;;;6.10;;
63296;SDS011;49419;51.716;-4.948;2023-06-19T00:10:56;5.88;;;5.47;;
63296;SDS011;49419;51.716;-4.948;2023-06-19T00:13:22;6.28;;;5.78;;
63296;SDS011;49419;51.716;-4.948;2023-06-19T00:16:03;6.40;;;5.90;;
63296;SDS011;49419;51.716;-4.948;2023-06-19T00:18:29;6.70;;;6.13;;
63296;SDS011;49419;51.716;-4.948;2023-06-19T00:21:13;6.07;;;5.63;;
63296;SDS011;49419;51.716;-4.948;2023-06-19T00:23:39;5.63;;;5.22;;
63296;SDS011;49419;51.716;-4.948;2023-06-19T00:26:04;6.53;;;6.03;;
63296;SDS011;49419;51.716;-4.948;2023-06-19T00:28:31;8.02;;;6.65;;
63296;SDS011;49419;51.716;-4.948;2023-06-19T00:30:57;6.43;;;5.93;;
63296;SDS011;49419;51.716;-4.948;2023-06-19T00:33:33;6.22;;;5.82;;
63296;SDS011;49419;51.716;-4.948;2023-06-19T00:36:14;6.22;;;5.72;;
63296;SDS011;49419;51.716;-4.948;2023-06-19T00:38:50;5.97;;;5.47;;
63296;SDS011;49419;51.716;-4.948;2023-06-19T00:41:30;6.00;;;5.50;;
63296;SDS011;49419;51.716;-4.948;2023-06-19T00:44:13;6.07;;;5.68;;
63296;SDS011;49419;51.716;-4.948;2023-06-19T00:46:44;5.90;;;5.50;;
63296;SDS011;49419;51.716;-4.948;2023-06-19T00:49:24;6.43;;;5.82;;
63296;SDS011;49419;51.716;-4.948;2023-06-19T00:51:51;6.00;;;5.50;;
63296;SDS011;49419;51.716;-4.948;2023-06-19T00:54:21;5.68;;;5.25;;
63296;SDS011;49419;51.716;-4.948;2023-06-19T00:57:00;6.00;;;5.50;;
63296;SDS011;49419;51.716;-4.948;2023-06-19T00:59:26;5.45;;;5.15;;
63296;SDS011;49419;51.716;-4.948;2023-06-19T01:01:51;5.85;;;5.45;;
63296;SDS011;49419;51.716;-4.948;2023-06-19T01:04:18;5.70;;;5.30;;
63296;SDS011;49419;51.716;-4.948;2023-06-19T01:06:53;5.97;;;5.57;;
63296;SDS011;49419;51.716;-4.948;2023-06-19T01:12:37;6.20;;;5.70;;
63296;SDS011;49419;51.716;-4.948;2023-06-19T01:15:19;6.28;;;5.78;;
63296;SDS011;49419;51.716;-4.948;2023-06-19T01:17:45;5.80;;;5.40;;
63296;SDS011;49419;51.716;-4.948;2023-06-19T01:20:12;5.97;;;5.53;;
63296;SDS011;49419;51.716;-4.948;2023-06-19T01:25:26;5.85;;;5.35;;
63296;SDS011;49419;51.716;-4.948;2023-06-19T01:27:54;5.82;;;5.43;;
63296;SDS011;49419;51.716;-4.948;2023-06-19T01:30:32;5.85;;;5.45;;
63296;SDS011;49419;51.716;-4.948;2023-06-19T01:35:46;5.47;;;5.13;;
63296;SDS011;49419;51.716;-4.948;2023-06-19T01:38:12;5.50;;;5.20;;
63296;SDS011;49419;51.716;-4.948;2023-06-19T01:40:42;5.50;;;5.05;;
63296;SDS011;49419;51.716;-4.948;2023-06-19T01:43:32;5.20;;;4.90;;
63296;SDS011;49419;51.716;-4.948;2023-06-19T01:46:04;5.50;;;5.10;;
63296;SDS011;49419;51.716;-4.948;2023-06-19T01:48:31;4.70;;;4.40;;
63296;SDS011;49419;51.716;-4.948;2023-06-19T01:50:59;5.22;;;4.90;;
63296;SDS011;49419;51.716;-4.948;2023-06-19T01:53:27;4.82;;;4.53;;
63296;SDS011;49419;51.716;-4.948;2023-06-19T01:56:05;5.00;;;4.70;;
63296;SDS011;49419;51.716;-4.948;2023-06-19T02:01:23;4.85;;;4.55;;
63296;SDS011;49419;51.716;-4.948;2023-06-19T02:03:49;4.93;;;4.63;;
63296;SDS011;49419;51.716;-4.948;2023-06-19T02:06:14;5.00;;;4.70;;
63296;SDS011;49419;51.716;-4.948;2023-06-19T02:08:40;4.93;;;4.63;;
63296;SDS011;49419;51.716;-4.948;2023-06-19T02:11:08;5.43;;;5.03;;
63296;SDS011;49419;51.716;-4.948;2023-06-19T02:13:46;5.00;;;4.70;;
63296;SDS011;49419;51.716;-4.948;2023-06-19T02:16:11;4.50;;;4.30;;
63296;SDS011;49419;51.716;-4.948;2023-06-19T02:18:37;4.63;;;4.30;;
63296;SDS011;49419;51.716;-4.948;2023-06-19T02:21:02;4.60;;;4.40;;
63296;SDS011;49419;51.716;-4.948;2023-06-19T02:23:31;4.25;;;4.05;;
63296;SDS011;49419;51.716;-4.948;2023-06-19T02:25:57;4.40;;;4.20;;
63296;SDS011;49419;51.716;-4.948;2023-06-19T02:28:32;4.60;;;4.30;;
63296;SDS011;49419;51.716;-4.948;2023-06-19T02:30:58;4.65;;;4.35;;
63296;SDS011;49419;51.716;-4.948;2023-06-19T02:33:24;4.68;;;4.38;;
63296;SDS011;49419;51.716;-4.948;2023-06-19T02:35:49;4.70;;;4.40;;
63296;SDS011;49419;51.716;-4.948;2023-06-19T02:38:17;4.60;;;4.30;;
63296;SDS011;49419;51.716;-4.948;2023-06-19T02:40:53;4.80;;;4.50;;
63296;SDS011;49419;51.716;-4.948;2023-06-19T02:43:18;4.97;;;4.38;;
63296;SDS011;49419;51.716;-4.948;2023-06-19T02:45:44;4.60;;;4.20;;
63296;SDS011;49419;51.716;-4.948;2023-06-19T02:48:12;4.70;;;4.40;;
63296;SDS011;49419;51.716;-4.948;2023-06-19T02:50:46;4.75;;;4.45;;
63296;SDS011;49419;51.716;-4.948;2023-06-19T02:56:11;4.80;;;4.40;;
63296;SDS011;49419;51.716;-4.948;2023-06-19T02:58:37;4.82;;;4.50;;
63296;SDS011;49419;51.716;-4.948;2023-06-19T03:01:21;4.60;;;4.30;;
63296;SDS011;49419;51.716;-4.948;2023-06-19T03:03:46;4.60;;;4.30;;
63296;SDS011;49419;51.716;-4.948;2023-06-19T03:06:13;4.90;;;4.50;;
63296;SDS011;49419;51.716;-4.948;2023-06-19T03:08:39;5.00;;;4.60;;
63296;SDS011;49419;51.716;-4.948;2023-06-19T03:11:05;5.20;;;4.80;;
63296;SDS011;49419;51.716;-4.948;2023-06-19T03:13:51;5.32;;;4.90;;
63296;SDS011;49419;51.716;-4.948;2023-06-19T03:16:18;5.53;;;5.13;;
63296;SDS011;49419;51.716;-4.948;2023-06-19T03:18:46;5.38;;;5.07;;
63296;SDS011;49419;51.716;-4.948;2023-06-19T03:21:14;5.68;;;5.28;;
63296;SDS011;49419;51.716;-4.948;2023-06-19T03:23:44;5.70;;;5.30;;
63296;SDS011;49419;51.716;-4.948;2023-06-19T03:26:10;5.78;;;5.28;;
63296;SDS011;49419;51.716;-4.948;2023-06-19T03:28:36;5.43;;;5.03;;
63296;SDS011;49419;51.716;-4.948;2023-06-19T03:33:39;5.97;;;5.43;;
63296;SDS011;49419;51.716;-4.948;2023-06-19T03:36:07;5.90;;;5.50;;
63296;SDS011;49419;51.716;-4.948;2023-06-19T03:38:33;6.03;;;5.15;;
63296;SDS011;49419;51.716;-4.948;2023-06-19T03:40:58;6.18;;;5.63;;
63296;SDS011;49419;51.716;-4.948;2023-06-19T03:43:27;5.78;;;5.32;;
63296;SDS011;49419;51.716;-4.948;2023-06-19T03:45:52;5.90;;;5.40;;
63296;SDS011;49419;51.716;-4.948;2023-06-19T03:48:18;5.35;;;5.00;;
63296;SDS011;49419;51.716;-4.948;2023-06-19T03:50:43;6.18;;;5.57;;
63296;SDS011;49419;51.716;-4.948;2023-06-19T03:53:09;6.50;;;5.90;;
63296;SDS011;49419;51.716;-4.948;2023-06-19T03:55:45;5.97;;;5.57;;
63296;SDS011;49419;51.716;-4.948;2023-06-19T03:58:10;5.70;;;5.30;;
63296;SDS011;49419;51.716;-4.948;2023-06-19T04:00:36;5.55;;;5.15;;
63296;SDS011;49419;51.716;-4.948;2023-06-19T04:03:01;5.65;;;5.25;;
63296;SDS011;49419;51.716;-4.948;2023-06-19T04:05:27;5.55;;;5.22;;
63296;SDS011;49419;51.716;-4.948;2023-06-19T04:07:54;5.60;;;5.30;;
63296;SDS011;49419;51.716;-4.948;2023-06-19T04:10:22;5.45;;;5.15;;
63296;SDS011;49419;51.716;-4.948;2023-06-19T04:12:48;5.15;;;4.85;;
63296;SDS011;49419;51.716;-4.948;2023-06-19T04:15:19;5.03;;;4.72;;
63296;SDS011;49419;51.716;-4.948;2023-06-19T04:17:44;5.00;;;4.70;;
63296;SDS011;49419;51.716;-4.948;2023-06-19T04:20:10;5.20;;;4.80;;
63296;SDS011;49419;51.716;-4.948;2023-06-19T04:22:39;5.30;;;4.90;;
63296;SDS011;49419;51.716;-4.948;2023-06-19T04:25:10;5.00;;;4.70;;
63296;SDS011;49419;51.716;-4.948;2023-06-19T04:27:36;5.10;;;4.78;;
63296;SDS011;49419;51.716;-4.948;2023-06-19T04:30:02;4.75;;;4.45;;
63296;SDS011;49419;51.716;-4.948;2023-06-19T04:32:35;4.78;;;4.47;;
63296;SDS011;49419;51.716;-4.948;2023-06-19T04:35:07;4.75;;;4.45;;
63296;SDS011;49419;51.716;-4.948;2023-06-19T04:37:45;4.50;;;4.22;;
63296;SDS011;49419;51.716;-4.948;2023-06-19T04:40:15;4.70;;;4.40;;
63296;SDS011;49419;51.716;-4.948;2023-06-19T04:42:42;4.97;;;4.57;;
63296;SDS011;49419;51.716;-4.948;2023-06-19T04:45:08;4.72;;;4.43;;
63296;SDS011;49419;51.716;-4.948;2023-06-19T04:47:36;5.05;;;4.70;;
63296;SDS011;49419;51.716;-4.948;2023-06-19T04:50:10;5.20;;;4.80;;
63296;SDS011;49419;51.716;-4.948;2023-06-19T04:52:36;4.88;;;4.50;;
63296;SDS011;49419;51.716;-4.948;2023-06-19T04:55:04;4.90;;;4.60;;
63296;SDS011;49419;51.716;-4.948;2023-06-19T04:57:33;5.10;;;4.80;;
63296;SDS011;49419;51.716;-4.948;2023-06-19T05:00:03;4.85;;;4.55;;
63296;SDS011;49419;51.716;-4.948;2023-06-19T05:02:39;4.80;;;4.50;;
63296;SDS011;49419;51.716;-4.948;2023-06-19T05:05:09;4.90;;;4.60;;
63296;SDS011;49419;51.716;-4.948;2023-06-19T05:07:35;4.85;;;4.55;;
63296;SDS011;49419;51.716;-4.948;2023-06-19T05:10:11;4.75;;;4.30;;
63296;SDS011;49419;51.716;-4.948;2023-06-19T05:12:37;4.60;;;4.30;;
63296;SDS011;49419;51.716;-4.948;2023-06-19T05:15:02;4.70;;;4.40;;
63296;SDS011;49419;51.716;-4.948;2023-06-19T05:17:28;4.70;;;4.40;;
63296;SDS011;49419;51.716;-4.948;2023-06-19T05:19:59;4.57;;;4.28;;
63296;SDS011;49419;51.716;-4.948;2023-06-19T05:22:27;4.55;;;4.25;;
63296;SDS011;49419;51.716;-4.948;2023-06-19T05:25:01;4.45;;;4.18;;
63296;SDS011;49419;51.716;-4.948;2023-06-19T05:27:27;4.60;;;4.30;;
63296;SDS011;49419;51.716;-4.948;2023-06-19T05:29:54;4.70;;;4.40;;
63296;SDS011;49419;51.716;-4.948;2023-06-19T05:32:22;4.57;;;4.28;;
63296;SDS011;49419;51.716;-4.948;2023-06-19T05:34:47;3.92;;;3.72;;
63296;SDS011;49419;51.716;-4.948;2023-06-19T05:37:23;3.83;;;3.63;;
63296;SDS011;49419;51.716;-4.948;2023-06-19T05:39:54;3.92;;;3.70;;
63296;SDS011;49419;51.716;-4.948;2023-06-19T05:42:22;4.07;;;3.78;;
63296;SDS011;49419;51.716;-4.948;2023-06-19T05:44:49;3.70;;;3.50;;
63296;SDS011;49419;51.716;-4.948;2023-06-19T05:47:40;3.88;;;3.58;;
63296;SDS011;49419;51.716;-4.948;2023-06-19T05:50:12;3.70;;;3.40;;
63296;SDS011;49419;51.716;-4.948;2023-06-19T05:52:42;3.50;;;3.30;;
63296;SDS011;49419;51.716;-4.948;2023-06-19T05:55:09;3.50;;;3.30;;
63296;SDS011;49419;51.716;-4.948;2023-06-19T05:57:35;3.45;;;3.20;;
63296;SDS011;49419;51.716;-4.948;2023-06-19T06:00:01;3.40;;;3.20;;
63296;SDS011;49419;51.716;-4.948;2023-06-19T06:02:34;3.95;;;3.60;;
63296;SDS011;49419;51.716;-4.948;2023-06-19T06:05:03;3.83;;;3.60;;
63296;SDS011;49419;51.716;-4.948;2023-06-19T06:07:33;4.25;;;3.60;;
63296;SDS011;49419;51.716;-4.948;2023-06-19T06:10:13;4.40;;;4.00;;
63296;SDS011;49419;51.716;-4.948;2023-06-19T06:12:41;3.60;;;3.30;;
63296;SDS011;49419;51.716;-4.948;2023-06-19T06:15:13;3.50;;;3.30;;
63296;SDS011;49419;51.716;-4.948;2023-06-19T06:17:48;3.65;;;3.45;;
63296;SDS011;49419;51.716;-4.948;2023-06-19T06:22:43;3.70;;;3.50;;
63296;SDS011;49419;51.716;-4.948;2023-06-19T06:25:09;3.78;;;3.50;;
63296;SDS011;49419;51.716;-4.948;2023-06-19T06:27:40;3.72;;;3.42;;
63296;SDS011;49419;51.716;-4.948;2023-06-19T06:30:08;3.60;;;3.40;;
63296;SDS011;49419;51.716;-4.948;2023-06-19T06:32:43;3.60;;;3.40;;
63296;SDS011;49419;51.716;-4.948;2023-06-19T06:35:08;3.60;;;3.40;;
63296;SDS011;49419;51.716;-4.948;2023-06-19T06:37:34;3.67;;;3.38;;
63296;SDS011;49419;51.716;-4.948;2023-06-19T06:40:01;3.70;;;3.40;;
63296;SDS011;49419;51.716;-4.948;2023-06-19T06:42:44;5.75;;;3.50;;
63296;SDS011;49419;51.716;-4.948;2023-06-19T06:45:13;3.90;;;3.60;;
63296;SDS011;49419;51.716;-4.948;2023-06-19T06:47:49;3.80;;;3.50;;
63296;SDS011;49419;51.716;-4.948;2023-06-19T06:50:16;4.00;;;3.70;;
63296;SDS011;49419;51.716;-4.948;2023-06-19T06:52:42;3.97;;;3.70;;
63296;SDS011;49419;51.716;-4.948;2023-06-19T06:55:08;4.25;;;3.90;;
63296;SDS011;49419;51.716;-4.948;2023-06-19T06:57:37;4.27;;;3.83;;
63296;SDS011;49419;51.716;-4.948;2023-06-19T07:00:05;4.07;;;3.80;;
63296;SDS011;49419;51.716;-4.948;2023-06-19T07:02:41;3.88;;;3.58;;
63296;SDS011;49419;51.716;-4.948;2023-06-19T07:05:14;4.05;;;3.72;;
63296;SDS011;49419;51.716;-4.948;2023-06-19T07:07:40;4.60;;;4.20;;
63296;SDS011;49419;51.716;-4.948;2023-06-19T07:10:36;4.20;;;3.90;;
63296;SDS011;49419;51.716;-4.948;2023-06-19T07:13:04;4.43;;;4.13;;
63296;SDS011;49419;51.716;-4.948;2023-06-19T07:15:32;4.70;;;4.40;;
63296;SDS011;49419;51.716;-4.948;2023-06-19T07:17:58;4.40;;;4.10;;
63296;SDS011;49419;51.716;-4.948;2023-06-19T07:20:24;4.55;;;4.15;;
63296;SDS011;49419;51.716;-4.948;2023-06-19T07:22:50;4.50;;;4.20;;
63296;SDS011;49419;51.716;-4.948;2023-06-19T07:25:17;4.43;;;4.10;;
63296;SDS011;49419;51.716;-4.948;2023-06-19T07:28:03;4.63;;;4.25;;
63296;SDS011;49419;51.716;-4.948;2023-06-19T07:30:29;4.50;;;4.20;;
63296;SDS011;49419;51.716;-4.948;2023-06-19T07:32:55;4.60;;;4.20;;
63296;SDS011;49419;51.716;-4.948;2023-06-19T07:35:25;4.80;;;4.35;;
63296;SDS011;49419;51.716;-4.948;2023-06-19T07:37:50;5.03;;;4.63;;
63296;SDS011;49419;51.716;-4.948;2023-06-19T07:40:17;4.60;;;4.30;;
63296;SDS011;49419;51.716;-4.948;2023-06-19T07:42:42;4.70;;;4.30;;
63296;SDS011;49419;51.716;-4.948;2023-06-19T07:45:08;4.25;;;4.00;;
63296;SDS011;49419;51.716;-4.948;2023-06-19T07:47:34;4.70;;;4.30;;
63296;SDS011;49419;51.716;-4.948;2023-06-19T07:49:59;4.57;;;4.28;;
63296;SDS011;49419;51.716;-4.948;2023-06-19T07:52:25;4.93;;;4.53;;
63296;SDS011;49419;51.716;-4.948;2023-06-19T07:54:55;4.80;;;4.40;;
63296;SDS011;49419;51.716;-4.948;2023-06-19T07:57:21;5.57;;;4.35;;
63296;SDS011;49419;51.716;-4.948;2023-06-19T07:59:53;4.45;;;4.15;;
63296;SDS011;49419;51.716;-4.948;2023-06-19T08:02:19;5.10;;;4.65;;
63296;SDS011;49419;51.716;-4.948;2023-06-19T08:04:45;5.60;;;4.20;;
63296;SDS011;49419;51.716;-4.948;2023-06-19T08:07:14;4.50;;;4.20;;
63296;SDS011;49419;51.716;-4.948;2023-06-19T08:09:39;4.00;;;3.70;;
63296;SDS011;49419;51.716;-4.948;2023-06-19T08:12:05;4.40;;;3.80;;
63296;SDS011;49419;51.716;-4.948;2023-06-19T08:14:31;4.07;;;3.70;;
63296;SDS011;49419;51.716;-4.948;2023-06-19T08:17:06;4.30;;;3.90;;
63296;SDS011;49419;51.716;-4.948;2023-06-19T08:19:31;3.90;;;3.50;;
63296;SDS011;49419;51.716;-4.948;2023-06-19T08:22:05;3.88;;;3.58;;
63296;SDS011;49419;51.716;-4.948;2023-06-19T08:24:33;4.20;;;3.80;;
63296;SDS011;49419;51.716;-4.948;2023-06-19T08:27:03;4.38;;;3.97;;
63296;SDS011;49419;51.716;-4.948;2023-06-19T08:29:29;4.40;;;3.97;;
63296;SDS011;49419;51.716;-4.948;2023-06-19T08:31:56;4.35;;;4.05;;
63296;SDS011;49419;51.716;-4.948;2023-06-19T08:34:21;4.45;;;4.05;;
63296;SDS011;49419;51.716;-4.948;2023-06-19T08:36:56;4.20;;;3.85;;
63296;SDS011;49419;51.716;-4.948;2023-06-19T08:39:25;4.40;;;4.00;;
63296;SDS011;49419;51.716;-4.948;2023-06-19T08:41:56;4.97;;;4.43;;
63296;SDS011;49419;51.716;-4.948;2023-06-19T08:44:22;4.68;;;4.28;;
63296;SDS011;49419;51.716;-4.948;2023-06-19T08:46:52;4.70;;;4.30;;
63296;SDS011;49419;51.716;-4.948;2023-06-19T08:49:19;4.68;;;4.28;;
63296;SDS011;49419;51.716;-4.948;2023-06-19T08:51:47;4.75;;;4.40;;
63296;SDS011;49419;51.716;-4.948;2023-06-19T08:54:15;6.45;;;4.40;;
63296;SDS011;49419;51.716;-4.948;2023-06-19T08:56:53;4.47;;;4.07;;
63296;SDS011;49419;51.716;-4.948;2023-06-19T08:59:19;4.22;;;3.88;;
63296;SDS011;49419;51.716;-4.948;2023-06-19T09:01:52;4.20;;;3.72;;
63296;SDS011;49419;51.716;-4.948;2023-06-19T09:04:25;4.10;;;3.80;;
63296;SDS011;49419;51.716;-4.948;2023-06-19T09:07:02;5.60;;;3.75;;
63296;SDS011;49419;51.716;-4.948;2023-06-19T09:09:29;4.50;;;3.97;;
63296;SDS011;49419;51.716;-4.948;2023-06-19T09:15:16;5.40;;;3.60;;
63296;SDS011;49419;51.716;-4.948;2023-06-19T09:17:41;4.00;;;3.60;;
63296;SDS011;49419;51.716;-4.948;2023-06-19T09:20:25;3.65;;;3.35;;
63296;SDS011;49419;51.716;-4.948;2023-06-19T09:22:59;5.18;;;4.10;;
63296;SDS011;49419;51.716;-4.948;2023-06-19T09:25:25;4.55;;;4.13;;
63296;SDS011;49419;51.716;-4.948;2023-06-19T09:27:55;4.03;;;3.72;;
63296;SDS011;49419;51.716;-4.948;2023-06-19T09:30:28;3.70;;;3.40;;
63296;SDS011;49419;51.716;-4.948;2023-06-19T09:32:55;4.10;;;3.70;;
63296;SDS011;49419;51.716;-4.948;2023-06-19T09:35:49;3.95;;;3.65;;
63296;SDS011;49419;51.716;-4.948;2023-06-19T09:38:20;3.45;;;3.15;;
63296;SDS011;49419;51.716;-4.948;2023-06-19T09:40:59;4.97;;;3.17;;
63296;SDS011;49419;51.716;-4.948;2023-06-19T09:43:46;3.47;;;3.17;;
63296;SDS011;49419;51.716;-4.948;2023-06-19T09:46:14;3.35;;;3.05;;
63296;SDS011;49419;51.716;-4.948;2023-06-19T09:48:45;3.58;;;3.28;;
63296;SDS011;49419;51.716;-4.948;2023-06-19T09:51:26;4.05;;;3.60;;
63296;SDS011;49419;51.716;-4.948;2023-06-19T09:53:58;3.63;;;3.30;;
63296;SDS011;49419;51.716;-4.948;2023-06-19T09:56:55;4.00;;;3.45;;
63296;SDS011;49419;51.716;-4.948;2023-06-19T09:59:25;3.65;;;3.35;;
63296;SDS011;49419;51.716;-4.948;2023-06-19T10:01:50;4.05;;;3.60;;
63296;SDS011;49419;51.716;-4.948;2023-06-19T10:04:17;5.40;;;3.63;;
63296;SDS011;49419;51.716;-4.948;2023-06-19T10:06:46;4.38;;;3.50;;
63296;SDS011;49419;51.716;-4.948;2023-06-19T10:09:24;3.42;;;3.13;;
63296;SDS011;49419;51.716;-4.948;2023-06-19T10:12:16;3.70;;;3.35;;
63296;SDS011;49419;51.716;-4.948;2023-06-19T10:14:46;3.80;;;3.50;;
63296;SDS011;49419;51.716;-4.948;2023-06-19T10:17:28;4.05;;;3.60;;
63296;SDS011;49419;51.716;-4.948;2023-06-19T10:19:55;3.60;;;3.30;;
63296;SDS011;49419;51.716;-4.948;2023-06-19T10:22:21;4.03;;;3.15;;
63296;SDS011;49419;51.716;-4.948;2023-06-19T10:24:56;3.42;;;3.13;;
63296;SDS011;49419;51.716;-4.948;2023-06-19T10:27:23;3.67;;;3.38;;
63296;SDS011;49419;51.716;-4.948;2023-06-19T10:29:54;3.40;;;3.15;;
63296;SDS011;49419;51.716;-4.948;2023-06-19T10:32:22;4.22;;;3.47;;
63296;SDS011;49419;51.716;-4.948;2023-06-19T10:34:55;3.53;;;3.17;;
63296;SDS011;49419;51.716;-4.948;2023-06-19T10:37:31;3.65;;;3.33;;
63296;SDS011;49419;51.716;-4.948;2023-06-19T10:40:01;3.75;;;3.17;;
63296;SDS011;49419;51.716;-4.948;2023-06-19T10:42:44;4.15;;;3.40;;
63296;SDS011;49419;51.716;-4.948;2023-06-19T10:45:11;3.40;;;3.10;;
63296;SDS011;49419;51.716;-4.948;2023-06-19T10:47:45;3.63;;;3.20;;
63296;SDS011;49419;51.716;-4.948;2023-06-19T10:50:11;3.25;;;2.95;;
63296;SDS011;49419;51.716;-4.948;2023-06-19T10:52:42;3.50;;;3.20;;
63296;SDS011;49419;51.716;-4.948;2023-06-19T10:55:12;3.78;;;3.20;;
63296;SDS011;49419;51.716;-4.948;2023-06-19T10:57:47;3.42;;;3.17;;
63296;SDS011;49419;51.716;-4.948;2023-06-19T11:00:30;3.55;;;3.25;;
63296;SDS011;49419;51.716;-4.948;2023-06-19T11:02:58;4.90;;;3.67;;
63296;SDS011;49419;51.716;-4.948;2023-06-19T11:05:25;3.60;;;3.30;;
63296;SDS011;49419;51.716;-4.948;2023-06-19T11:07:55;4.00;;;3.22;;
63296;SDS011;49419;51.716;-4.948;2023-06-19T11:13:22;3.58;;;3.28;;
63296;SDS011;49419;51.716;-4.948;2023-06-19T11:15:50;3.83;;;3.35;;
63296;SDS011;49419;51.716;-4.948;2023-06-19T11:18:16;3.70;;;3.30;;
63296;SDS011;49419;51.716;-4.948;2023-06-19T11:20:46;3.40;;;3.10;;
63296;SDS011;49419;51.716;-4.948;2023-06-19T11:23:14;4.50;;;2.97;;
63296;SDS011;49419;51.716;-4.948;2023-06-19T11:25:52;5.88;;;3.20;;
63296;SDS011;49419;51.716;-4.948;2023-06-19T11:28:20;3.40;;;3.10;;
63296;SDS011;49419;51.716;-4.948;2023-06-19T11:31:11;3.92;;;3.38;;
63296;SDS011;49419;51.716;-4.948;2023-06-19T11:33:37;3.45;;;3.15;;
63296;SDS011;49419;51.716;-4.948;2023-06-19T11:36:11;4.18;;;3.50;;
63296;SDS011;49419;51.716;-4.948;2023-06-19T11:38:37;3.40;;;3.10;;
63296;SDS011;49419;51.716;-4.948;2023-06-19T11:41:05;3.60;;;3.30;;
63296;SDS011;49419;51.716;-4.948;2023-06-19T11:43:31;3.47;;;3.17;;
63296;SDS011;49419;51.716;-4.948;2023-06-19T11:46:02;3.95;;;3.55;;
63296;SDS011;49419;51.716;-4.948;2023-06-19T11:48:31;3.72;;;3.25;;
63296;SDS011;49419;51.716;-4.948;2023-06-19T11:50:57;4.30;;;3.67;;
63296;SDS011;49419;51.716;-4.948;2023-06-19T11:53:24;3.90;;;3.50;;
63296;SDS011;49419;51.716;-4.948;2023-06-19T11:55:50;3.78;;;3.47;;
63296;SDS011;49419;51.716;-4.948;2023-06-19T11:58:19;4.20;;;3.35;;
63296;SDS011;49419;51.716;-4.948;2023-06-19T12:00:45;3.65;;;3.35;;
63296;SDS011;49419;51.716;-4.948;2023-06-19T12:03:11;3.80;;;3.50;;
63296;SDS011;49419;51.716;-4.948;2023-06-19T12:05:45;4.10;;;3.70;;
63296;SDS011;49419;51.716;-4.948;2023-06-19T12:08:10;4.43;;;3.42;;
63296;SDS011;49419;51.716;-4.948;2023-06-19T12:10:36;4.32;;;3.40;;
63296;SDS011;49419;51.716;-4.948;2023-06-19T12:13:04;3.40;;;3.10;;
63296;SDS011;49419;51.716;-4.948;2023-06-19T12:15:29;3.63;;;3.10;;
63296;SDS011;49419;51.716;-4.948;2023-06-19T12:17:56;3.65;;;3.15;;
63296;SDS011;49419;51.716;-4.948;2023-06-19T12:22:57;3.75;;;3.38;;
63296;SDS011;49419;51.716;-4.948;2023-06-19T12:25:27;3.20;;;3.00;;
63296;SDS011;49419;51.716;-4.948;2023-06-19T12:27:55;5.38;;;3.40;;
63296;SDS011;49419;51.716;-4.948;2023-06-19T12:30:24;3.97;;;3.50;;
63296;SDS011;49419;51.716;-4.948;2023-06-19T12:32:50;4.95;;;2.85;;
63296;SDS011;49419;51.716;-4.948;2023-06-19T12:35:26;4.20;;;3.00;;
63296;SDS011;49419;51.716;-4.948;2023-06-19T12:37:54;3.42;;;3.10;;
63296;SDS011;49419;51.716;-4.948;2023-06-19T12:40:22;3.47;;;3.17;;
63296;SDS011;49419;51.716;-4.948;2023-06-19T12:43:22;3.60;;;3.30;;
63296;SDS011;49419;51.716;-4.948;2023-06-19T12:46:01;3.55;;;3.22;;
63296;SDS011;49419;51.716;-4.948;2023-06-19T12:52:14;4.07;;;3.28;;
63296;SDS011;49419;51.716;-4.948;2023-06-19T12:55:02;3.63;;;3.10;;
63296;SDS011;49419;51.716;-4.948;2023-06-19T12:57:28;3.42;;;3.13;;
63296;SDS011;49419;51.716;-4.948;2023-06-19T12:59:59;4.38;;;3.35;;
63296;SDS011;49419;51.716;-4.948;2023-06-19T13:02:25;3.50;;;3.20;;
63296;SDS011;49419;51.716;-4.948;2023-06-19T13:05:03;4.30;;;3.38;;
63296;SDS011;49419;51.716;-4.948;2023-06-19T13:07:34;3.88;;;3.47;;
63296;SDS011;49419;51.716;-4.948;2023-06-19T13:10:02;4.00;;;3.50;;
63296;SDS011;49419;51.716;-4.948;2023-06-19T13:12:38;3.63;;;3.33;;
63296;SDS011;49419;51.716;-4.948;2023-06-19T13:15:05;3.20;;;2.92;;
63296;SDS011;49419;51.716;-4.948;2023-06-19T13:18:08;3.50;;;2.80;;
63296;SDS011;49419;51.716;-4.948;2023-06-19T13:21:03;3.95;;;3.22;;
63296;SDS011;49419;51.716;-4.948;2023-06-19T13:26:23;3.10;;;2.85;;
63296;SDS011;49419;51.716;-4.948;2023-06-19T13:28:58;5.53;;;3.03;;
63296;SDS011;49419;51.716;-4.948;2023-06-19T13:34:21;3.55;;;2.70;;
63296;SDS011;49419;51.716;-4.948;2023-06-19T13:36:52;3.20;;;2.90;;
63296;SDS011;49419;51.716;-4.948;2023-06-19T13:39:29;3.80;;;3.00;;
63296;SDS011;49419;51.716;-4.948;2023-06-19T13:42:14;3.83;;;2.78;;
63296;SDS011;49419;51.716;-4.948;2023-06-19T13:44:42;4.68;;;3.20;;
63296;SDS011;49419;51.716;-4.948;2023-06-19T13:47:25;3.22;;;2.90;;
63296;SDS011;49419;51.716;-4.948;2023-06-19T13:49:52;3.42;;;3.10;;
63296;SDS011;49419;51.716;-4.948;2023-06-19T13:52:17;3.08;;;2.80;;
63296;SDS011;49419;51.716;-4.948;2023-06-19T13:54:46;3.75;;;3.22;;
63296;SDS011;49419;51.716;-4.948;2023-06-19T13:57:15;3.95;;;2.72;;
63296;SDS011;49419;51.716;-4.948;2023-06-19T13:59:50;3.63;;;3.00;;
63296;SDS011;49419;51.716;-4.948;2023-06-19T14:02:16;4.38;;;3.00;;
63296;SDS011;49419;51.716;-4.948;2023-06-19T14:04:43;3.15;;;2.95;;
63296;SDS011;49419;51.716;-4.948;2023-06-19T14:07:08;3.58;;;3.08;;
63296;SDS011;49419;51.716;-4.948;2023-06-19T14:09:34;3.10;;;2.83;;
63296;SDS011;49419;51.716;-4.948;2023-06-19T14:12:03;3.00;;;2.67;;
63296;SDS011;49419;51.716;-4.948;2023-06-19T14:14:40;2.75;;;2.55;;
63296;SDS011;49419;51.716;-4.948;2023-06-19T14:17:06;2.88;;;2.55;;
63296;SDS011;49419;51.716;-4.948;2023-06-19T14:19:33;3.40;;;2.25;;
63296;SDS011;49419;51.716;-4.948;2023-06-19T14:21:59;2.35;;;1.75;;
63296;SDS011;49419;51.716;-4.948;2023-06-19T14:24:27;2.65;;;1.80;;
63296;SDS011;49419;51.716;-4.948;2023-06-19T14:27:23;3.05;;;1.90;;
63296;SDS011;49419;51.716;-4.948;2023-06-19T14:29:53;2.42;;;1.63;;
63296;SDS011;49419;51.716;-4.948;2023-06-19T14:32:32;2.25;;;1.70;;
63296;SDS011;49419;51.716;-4.948;2023-06-19T14:35:01;1.70;;;1.40;;
63296;SDS011;49419;51.716;-4.948;2023-06-19T14:37:36;2.47;;;1.60;;
63296;SDS011;49419;51.716;-4.948;2023-06-19T14:40:04;2.22;;;1.58;;
63296;SDS011;49419;51.716;-4.948;2023-06-19T14:42:39;1.73;;;1.50;;
63296;SDS011;49419;51.716;-4.948;2023-06-19T14:45:06;2.30;;;1.48;;
63296;SDS011;49419;51.716;-4.948;2023-06-19T14:47:32;2.45;;;1.70;;
63296;SDS011;49419;51.716;-4.948;2023-06-19T14:49:59;3.78;;;1.95;;
63296;SDS011;49419;51.716;-4.948;2023-06-19T14:55:05;3.30;;;1.60;;
63296;SDS011;49419;51.716;-4.948;2023-06-19T14:57:31;1.63;;;1.50;;
63296;SDS011;49419;51.716;-4.948;2023-06-19T14:59:56;3.85;;;1.45;;
63296;SDS011;49419;51.716;-4.948;2023-06-19T15:02:22;4.63;;;1.50;;
63296;SDS011;49419;51.716;-4.948;2023-06-19T15:04:47;1.45;;;1.35;;
63296;SDS011;49419;51.716;-4.948;2023-06-19T15:07:13;2.35;;;1.50;;
63296;SDS011;49419;51.716;-4.948;2023-06-19T15:09:41;1.40;;;1.30;;
63296;SDS011;49419;51.716;-4.948;2023-06-19T15:12:14;2.13;;;1.40;;
63296;SDS011;49419;51.716;-4.948;2023-06-19T15:14:39;1.60;;;1.50;;
63296;SDS011;49419;51.716;-4.948;2023-06-19T15:17:06;1.58;;;1.48;;
63296;SDS011;49419;51.716;-4.948;2023-06-19T15:19:32;1.92;;;1.50;;
63296;SDS011;49419;51.716;-4.948;2023-06-19T15:22:00;1.45;;;1.35;;
63296;SDS011;49419;51.716;-4.948;2023-06-19T15:24:36;2.50;;;0.82;;
63296;SDS011;49419;51.716;-4.948;2023-06-19T15:29:32;2.25;;;1.70;;
63296;SDS011;49419;51.716;-4.948;2023-06-19T15:32:05;2.33;;;1.63;;
63296;SDS011;49419;51.716;-4.948;2023-06-19T15:34:31;2.50;;;2.25;;